Strona główna
METAR-TAF:

METAR-TAF

Lotnisko :

Port lotniczy Vršac

Vršac, Serbia

Szerokość geograficzna: 45-09N, Długość geograficzna: 021-19E, wysokość: 83 m

Aktualna obserwacja pogody

Raport powstał 13 minut temu, godzina 22:30 UTC
Cisza
Temperatura 14°C
Wilgotność 88%
Ciśnienie 1016 hPa
Widzialność 10 km lub więcej
Brak chmur poniżej 1500 m i brak chmur cumulonimbus

METAR: LYVR 172230Z 00000KT CAVOK 14/12 Q1016 NOSIG

czas: 00:43 (22:43 UTC)

Prognoza

Raport powstał 5 godziny i 43 minut temu, godzina 17:00 UTC
Prognoza ważna od 17 godzina 18 UTC do 18 godzina 18 UTC
Wiatr 5 kt od zachodnio-północny zachód
Widzialność 10 km lub więcej
Brak chmur poniżej 1500 m i brak chmur cumulonimbus

TAF: LYVR 171700Z 1718/1818 30005KT CAVOK TX30/1813Z TN15/1803Z

Obserwacja i prognoza pogody dla ponad 4000 lotnisk (raport METAR i TAF).

Dostępne stacje oznaczono żółtymi i czerwonymi punktami na mapie.

Najedź kursorem aby zobaczyć nazwę stacji.

Kliknij aby zobaczyć obserwacje i prognozy pogody.

Aby zmienić mapę: kliknij na zielony przycisk z czarnym krzyżykiem, aby powiększyć; na zielony przycisk z myślnikiem, aby pomniejszyć; na zielone strzałki, aby przejść do map sąsiednich.


METAR-TAF: